KMLS/MLS METAR and TAF weather

Enter ICAO airport designator
Station Type Date Time Source
KMLS METAR 2019/09/21 04:53 UTC NOAA

KMLS 210453Z AUTO 29010KT 10SM SCT045 13/11 A2981 RMK AO2 SLP086 T01280106


Station Type Date Time Source
KMLS Decoded METAR 2019/09/21 04:53 UTC NOAA

MILES CITY WILEY FIELD, MT, United States (KMLS) 46-26N 105-53W 801M
Sep 21, 2019 - 12:53 AM EDT / 2019.09.21 0453 UTC
Wind: from the WNW (290 degrees) at 12 MPH (10 KT):0
Visibility: 10 mile(s):0
Sky conditions: partly cloudy
Temperature: 55.0 F (12.8 C)
Dew Point: 51.1 F (10.6 C)
Relative Humidity: 86%
Pressure (altimeter): 29.81 in. Hg (1009 hPa)
ob: KMLS 210453Z AUTO 29010KT 10SM SCT045 13/11 A2981 RMK AO2 SLP086 T01280106
cycle: 5

Station Type Date Time Source
KMLS TAF 2019/09/21 04:03 UTC NOAA

TAF
AMD KMLS 210400Z 2104/2124 30007KT P6SM VCTS OVC040CB
FM211000 34015KT 4SM -RA BR OVC015
FM211500 34012G20KT P6SM -SHRA BKN025
FM211800 28012G21KT P6SM VCSH SCT050

Example: see airport list